Time;durP1;ratioP1;P1;durP2;ratioP2;P2;SDS_P1;SDS_P2;PMS_P1;PMS_P2;Temp;Humidity;BMP_temperature;BMP_pressure;BME280_temperature;BME280_humidity;BME280_pressure;Samples;Min_cycle;Max_cycle;Signal;HPM_P1;HPM_P2
2023/08/22 00:00:46;;;;;;;2.53;1.27;;;;;;;;;;4974496;28;20650;-81
2023/08/22 00:03:13;;;;;;;6.07;1.50;;;;;;;;;;4974409;28;20185;-81
2023/08/22 00:05:39;;;;;;;3.53;1.10;;;;;;;;;;4974485;28;20413;-81
2023/08/22 00:08:06;;;;;;;3.50;1.70;;;;;;;;;;4974009;28;20419;-81
2023/08/22 00:10:32;;;;;;;1.93;1.23;;;;;;;;;;4974278;28;20970;-82
2023/08/22 00:12:58;;;;;;;2.40;1.10;;;;;;;;;;4974065;28;20483;-81
2023/08/22 00:15:24;;;;;;;2.97;1.17;;;;;;;;;;4974168;28;20771;-82
2023/08/22 00:17:50;;;;;;;6.40;2.07;;;;;;;;;;4973109;28;20186;-81
2023/08/22 00:20:17;;;;;;;3.13;1.50;;;;;;;;;;4974224;28;20413;-81
2023/08/22 00:22:43;;;;;;;3.23;2.10;;;;;;;;;;4973027;28;20433;-82
2023/08/22 00:25:09;;;;;;;4.87;1.50;;;;;;;;;;4973584;28;20500;-80
2023/08/22 00:27:35;;;;;;;3.00;1.50;;;;;;;;;;4973902;28;20505;-81
2023/08/22 00:30:02;;;;;;;4.03;1.97;;;;;;;;;;4973997;28;20917;-80
2023/08/22 00:32:28;;;;;;;4.73;1.30;;;;;;;;;;4973811;28;20480;-81
2023/08/22 00:34:54;;;;;;;3.13;1.63;;;;;;;;;;4973403;28;20445;-81
2023/08/22 00:37:20;;;;;;;2.43;0.70;;;;;;;;;;4973367;28;20768;-81
2023/08/22 00:39:46;;;;;;;4.77;1.30;;;;;;;;;;4973203;28;20590;-81
2023/08/22 00:42:12;;;;;;;5.03;3.70;;;;;;;;;;4973849;28;20912;-81
2023/08/22 00:44:38;;;;;;;3.67;1.50;;;;;;;;;;4973823;28;20506;-81
2023/08/22 00:47:04;;;;;;;2.90;0.80;;;;;;;;;;4973512;28;20425;-81
2023/08/22 00:49:30;;;;;;;5.30;1.20;;;;;;;;;;4973287;28;20255;-81
2023/08/22 00:51:57;;;;;;;3.67;1.20;;;;;;;;;;4972417;28;20982;-81
2023/08/22 00:54:23;;;;;;;5.93;1.80;;;;;;;;;;4973435;28;20444;-81
2023/08/22 00:56:50;;;;;;;3.97;1.60;;;;;;;;;;4973675;28;20429;-81
2023/08/22 00:59:16;;;;;;;5.57;2.00;;;;;;;;;;4973715;28;20423;-81
2023/08/22 01:01:42;;;;;;;3.30;1.23;;;;;;;;;;4978522;28;20424;-81
2023/08/22 01:04:08;;;;;;;3.33;0.93;;;;;;;;;;4973806;28;20419;-81
2023/08/22 01:06:37;;;;;;;4.57;1.90;;;;;;;;;;4973705;28;20828;-81
2023/08/22 01:09:18;;;;;;;5.77;2.50;;;;;;;;;;4973162;28;20172;-81
2023/08/22 01:11:48;;;;;;;4.40;1.60;;;;;;;;;;4972060;28;20838;-82
2023/08/22 01:14:17;;;;;;;5.23;1.83;;;;;;;;;;4973657;28;20404;-81
2023/08/22 01:16:43;;;;;;;3.13;1.30;;;;;;;;;;4971128;28;20473;-81
2023/08/22 01:19:11;;;;;;;5.70;1.43;;;;;;;;;;4972667;28;20433;-81
2023/08/22 01:21:37;;;;;;;5.80;1.43;;;;;;;;;;4973877;28;20428;-81
2023/08/22 01:24:03;;;;;;;5.67;1.67;;;;;;;;;;4973483;28;20483;-81
2023/08/22 01:26:29;;;;;;;3.67;0.97;;;;;;;;;;4973847;28;20915;-82
2023/08/22 01:28:58;;;;;;;4.60;1.70;;;;;;;;;;4973577;28;20445;-81
2023/08/22 01:31:35;;;;;;;5.50;1.60;;;;;;;;;;4973626;28;20477;-81
2023/08/22 01:34:04;;;;;;;3.23;1.73;;;;;;;;;;4973470;28;20423;-81
2023/08/22 01:36:30;;;;;;;3.10;1.50;;;;;;;;;;4973645;28;20410;-82
2023/08/22 01:38:57;;;;;;;3.93;1.93;;;;;;;;;;4973453;28;20421;-81
2023/08/22 01:41:23;;;;;;;6.23;1.60;;;;;;;;;;4973658;28;20411;-81
2023/08/22 01:43:52;;;;;;;3.30;1.17;;;;;;;;;;4973661;28;20427;-81
2023/08/22 01:46:18;;;;;;;4.20;1.33;;;;;;;;;;4973673;28;20409;-81
2023/08/22 01:48:44;;;;;;;7.70;2.03;;;;;;;;;;4973600;28;20411;-81
2023/08/22 01:51:10;;;;;;;3.03;1.47;;;;;;;;;;4973590;28;20575;-81
2023/08/22 01:53:36;;;;;;;5.70;2.00;;;;;;;;;;4973317;28;20413;-81
2023/08/22 01:56:02;;;;;;;4.37;1.37;;;;;;;;;;4973561;28;20418;-81
2023/08/22 01:58:28;;;;;;;4.90;1.67;;;;;;;;;;4973596;28;20174;-81
2023/08/22 02:00:54;;;;;;;2.80;1.23;;;;;;;;;;4976615;28;20639;-81
2023/08/22 02:03:21;;;;;;;3.93;1.33;;;;;;;;;;4977016;28;20424;-81
2023/08/22 02:05:47;;;;;;;4.57;1.83;;;;;;;;;;4976995;28;20435;-81
2023/08/22 02:08:13;;;;;;;4.17;2.30;;;;;;;;;;4976589;28;20941;-81
2023/08/22 02:10:39;;;;;;;4.47;1.90;;;;;;;;;;4975531;28;21097;-81
2023/08/22 02:13:05;;;;;;;5.13;1.70;;;;;;;;;;4976669;28;20313;-81
2023/08/22 02:15:31;;;;;;;3.30;2.30;;;;;;;;;;4975464;28;20870;-81
2023/08/22 02:17:57;;;;;;;2.60;1.30;;;;;;;;;;4976784;28;20264;-81
2023/08/22 02:20:24;;;;;;;3.33;1.10;;;;;;;;;;4976724;28;20415;-82
2023/08/22 02:22:50;;;;;;;6.90;2.30;;;;;;;;;;4976405;28;20973;-82
2023/08/22 02:25:17;;;;;;;3.73;2.73;;;;;;;;;;4976605;28;20421;-82
2023/08/22 02:27:42;;;;;;;4.47;1.40;;;;;;;;;;4976557;28;20174;-81
2023/08/22 02:30:09;;;;;;;3.70;1.30;;;;;;;;;;4971633;28;20425;-82
2023/08/22 02:32:39;;;;;;;4.07;2.87;;;;;;;;;;4967244;28;20260;-81
2023/08/22 02:35:06;;;;;;;6.23;1.90;;;;;;;;;;4965465;28;20410;-81
2023/08/22 02:37:32;;;;;;;4.27;1.60;;;;;;;;;;4965780;28;20413;-80
2023/08/22 02:39:58;;;;;;;4.00;2.23;;;;;;;;;;4967127;28;20498;-81
2023/08/22 02:42:24;;;;;;;3.80;1.87;;;;;;;;;;4967763;28;21015;-81
2023/08/22 02:44:50;;;;;;;5.10;1.80;;;;;;;;;;4966245;28;20503;-81
2023/08/22 02:47:16;;;;;;;3.83;1.40;;;;;;;;;;4966749;28;20426;-81
2023/08/22 02:49:41;;;;;;;3.03;1.60;;;;;;;;;;4965099;28;20183;-81
2023/08/22 02:52:07;;;;;;;7.10;2.20;;;;;;;;;;4966440;28;20845;-81
2023/08/22 02:54:33;;;;;;;3.10;1.60;;;;;;;;;;4966007;28;20171;-81
2023/08/22 02:56:59;;;;;;;4.10;1.43;;;;;;;;;;4964869;28;20422;-81
2023/08/22 02:59:25;;;;;;;3.53;1.67;;;;;;;;;;4966652;28;20555;-82
2023/08/22 03:01:51;;;;;;;4.10;1.30;;;;;;;;;;4965688;28;20758;-82
2023/08/22 03:04:17;;;;;;;4.53;2.17;;;;;;;;;;4964966;28;20178;-82
2023/08/22 03:06:43;;;;;;;5.37;1.47;;;;;;;;;;4966639;28;20417;-82
2023/08/22 03:09:09;;;;;;;2.60;1.83;;;;;;;;;;4964954;28;20410;-82
2023/08/22 03:11:35;;;;;;;2.80;1.50;;;;;;;;;;4963989;28;20575;-81
2023/08/22 03:14:01;;;;;;;3.70;1.47;;;;;;;;;;4966432;28;20417;-82
2023/08/22 03:16:26;;;;;;;11.17;2.60;;;;;;;;;;4964710;28;20935;-81
2023/08/22 03:18:52;;;;;;;2.33;0.83;;;;;;;;;;4966229;28;20170;-81
2023/08/22 03:21:18;;;;;;;2.50;1.20;;;;;;;;;;4967135;28;20171;-82
2023/08/22 03:23:44;;;;;;;3.67;1.80;;;;;;;;;;4966004;28;20422;-81
2023/08/22 03:26:11;;;;;;;2.13;1.00;;;;;;;;;;4965077;28;20177;-81
2023/08/22 03:28:37;;;;;;;3.10;1.27;;;;;;;;;;4964395;28;20426;-81
2023/08/22 03:31:04;;;;;;;4.73;1.03;;;;;;;;;;4966185;28;20464;-81
2023/08/22 03:33:30;;;;;;;3.53;1.57;;;;;;;;;;4971811;28;20907;-81
2023/08/22 03:35:57;;;;;;;3.60;2.10;;;;;;;;;;4964506;28;20499;-82
2023/08/22 03:38:23;;;;;;;3.20;1.80;;;;;;;;;;4972639;28;20424;-82
2023/08/22 03:40:49;;;;;;;3.50;1.47;;;;;;;;;;4964663;28;20415;-82
2023/08/22 03:43:18;;;;;;;2.47;1.33;;;;;;;;;;4964638;28;20425;-82
2023/08/22 03:45:44;;;;;;;4.43;2.67;;;;;;;;;;4964126;28;20418;-82
2023/08/22 03:48:11;;;;;;;6.67;1.70;;;;;;;;;;4965170;28;20916;-82
2023/08/22 03:50:40;;;;;;;3.83;1.73;;;;;;;;;;4965578;28;20554;-82
2023/08/22 03:53:06;;;;;;;4.77;1.73;;;;;;;;;;4965444;28;20519;-83
2023/08/22 03:55:32;;;;;;;3.90;2.17;;;;;;;;;;4964961;28;20489;-83
2023/08/22 03:57:59;;;;;;;5.50;2.83;;;;;;;;;;4963973;28;20851;-83
2023/08/22 04:00:27;;;;;;;5.03;2.60;;;;;;;;;;4965705;28;20429;-83
2023/08/22 04:02:54;;;;;;;5.63;2.47;;;;;;;;;;4971686;28;20451;-82
2023/08/22 04:05:21;;;;;;;7.20;2.40;;;;;;;;;;4963369;28;20430;-83
2023/08/22 04:07:46;;;;;;;4.40;1.83;;;;;;;;;;4964928;28;20442;-82
2023/08/22 04:10:12;;;;;;;4.20;2.33;;;;;;;;;;4964542;28;21085;-82
2023/08/22 04:12:38;;;;;;;4.67;3.37;;;;;;;;;;4963395;28;20276;-83
2023/08/22 04:15:04;;;;;;;6.27;2.33;;;;;;;;;;4963382;28;20580;-83
2023/08/22 04:17:30;;;;;;;6.93;2.63;;;;;;;;;;4964629;28;20185;-82
2023/08/22 04:19:56;;;;;;;5.20;2.07;;;;;;;;;;4971823;28;20981;-81
2023/08/22 04:22:22;;;;;;;6.33;2.30;;;;;;;;;;4962863;28;20185;-82
2023/08/22 04:24:48;;;;;;;2.97;2.07;;;;;;;;;;4964825;28;20456;-82
2023/08/22 04:27:14;;;;;;;4.67;2.77;;;;;;;;;;4964490;28;20433;-81
2023/08/22 04:29:40;;;;;;;3.70;2.83;;;;;;;;;;4963222;28;20841;-82
2023/08/22 04:32:06;;;;;;;7.20;2.10;;;;;;;;;;4965017;28;20480;-82
2023/08/22 04:34:32;;;;;;;5.63;2.50;;;;;;;;;;4964372;28;20189;-80
2023/08/22 04:36:58;;;;;;;5.57;2.20;;;;;;;;;;4963299;28;20751;-80
2023/08/22 04:39:24;;;;;;;3.23;1.90;;;;;;;;;;4964822;28;20178;-81
2023/08/22 04:41:50;;;;;;;5.37;2.53;;;;;;;;;;4965237;28;20267;-81
2023/08/22 04:44:16;;;;;;;3.80;2.40;;;;;;;;;;4964757;28;20238;-81
2023/08/22 04:46:42;;;;;;;2.63;1.17;;;;;;;;;;4963145;28;20610;-81
2023/08/22 04:49:08;;;;;;;3.00;2.10;;;;;;;;;;4964544;28;20857;-81
2023/08/22 04:51:34;;;;;;;2.37;1.67;;;;;;;;;;4964329;28;20482;-81
2023/08/22 04:54:00;;;;;;;3.43;2.30;;;;;;;;;;4962736;28;20777;-82
2023/08/22 04:56:26;;;;;;;4.93;2.20;;;;;;;;;;4964831;28;20174;-83
2023/08/22 04:58:53;;;;;;;7.00;1.70;;;;;;;;;;4963989;28;20418;-82
2023/08/22 05:01:18;;;;;;;8.17;1.93;;;;;;;;;;4963109;28;20536;-82
2023/08/22 05:03:45;;;;;;;2.93;1.80;;;;;;;;;;4971542;28;20426;-83
2023/08/22 05:06:11;;;;;;;4.47;2.50;;;;;;;;;;4963858;28;20463;-83
2023/08/22 05:08:37;;;;;;;2.27;1.70;;;;;;;;;;4962740;28;20454;-83
2023/08/22 05:11:03;;;;;;;4.10;2.33;;;;;;;;;;4964687;28;20476;-84
2023/08/22 05:13:29;;;;;;;4.22;2.10;;;;;;;;;;4962450;28;20512;-83
2023/08/22 05:15:55;;;;;;;2.67;1.60;;;;;;;;;;4963271;28;20759;-83
2023/08/22 05:18:21;;;;;;;2.20;1.33;;;;;;;;;;4964672;28;20187;-83
2023/08/22 05:20:49;;;;;;;3.60;2.37;;;;;;;;;;4962848;28;20182;-83
2023/08/22 05:23:15;;;;;;;7.90;2.17;;;;;;;;;;4962784;28;20426;-83
2023/08/22 05:25:41;;;;;;;4.20;2.10;;;;;;;;;;4964575;28;20911;-82
2023/08/22 05:28:08;;;;;;;2.67;1.10;;;;;;;;;;4963038;28;20445;-81
2023/08/22 05:30:33;;;;;;;3.83;1.20;;;;;;;;;;4963419;28;20253;-80
2023/08/22 05:32:59;;;;;;;3.37;1.23;;;;;;;;;;4964506;28;20511;-80
2023/08/22 05:35:25;;;;;;;4.37;1.73;;;;;;;;;;4965378;28;20415;-81
2023/08/22 05:37:51;;;;;;;3.47;1.37;;;;;;;;;;4967017;28;20449;-81
2023/08/22 05:40:17;;;;;;;3.87;1.80;;;;;;;;;;4974881;28;20216;-83
2023/08/22 05:42:43;;;;;;;3.20;1.13;;;;;;;;;;4973081;28;20439;-85
2023/08/22 05:45:09;;;;;;;5.90;1.93;;;;;;;;;;4968547;28;20516;-82
2023/08/22 05:47:35;;;;;;;3.33;1.63;;;;;;;;;;4967617;28;20175;-82
2023/08/22 05:50:01;;;;;;;4.57;1.73;;;;;;;;;;4967217;28;20464;-83
2023/08/22 05:52:28;;;;;;;6.93;1.67;;;;;;;;;;4966496;28;20558;-83
2023/08/22 05:54:54;;;;;;;2.90;1.60;;;;;;;;;;4962792;28;20793;-80
2023/08/22 05:57:22;;;;;;;2.50;1.90;;;;;;;;;;4964710;28;20519;-80
2023/08/22 05:59:51;;;;;;;3.40;1.43;;;;;;;;;;4970032;28;20259;-80
2023/08/22 06:02:17;;;;;;;2.90;1.10;;;;;;;;;;4967467;28;20424;-80
2023/08/22 06:04:47;;;;;;;5.13;0.67;;;;;;;;;;4965734;28;20419;-80
2023/08/22 06:07:13;;;;;;;4.43;0.97;;;;;;;;;;4966472;28;20417;-80
2023/08/22 06:09:39;;;;;;;5.57;1.97;;;;;;;;;;4967683;28;20486;-80
2023/08/22 06:12:05;;;;;;;3.10;1.30;;;;;;;;;;4964937;28;20994;-80
2023/08/22 06:14:31;;;;;;;6.73;1.50;;;;;;;;;;4966111;28;20431;-80
2023/08/22 06:16:58;;;;;;;2.30;0.90;;;;;;;;;;4967299;28;20427;-80
2023/08/22 06:19:24;;;;;;;3.80;1.40;;;;;;;;;;4965596;28;20262;-80
2023/08/22 06:21:50;;;;;;;3.40;1.23;;;;;;;;;;4966730;28;20422;-81
2023/08/22 06:24:16;;;;;;;2.97;1.43;;;;;;;;;;4966688;28;20418;-80
2023/08/22 06:26:42;;;;;;;3.03;1.10;;;;;;;;;;4965200;28;20189;-81
2023/08/22 06:29:11;;;;;;;2.60;1.20;;;;;;;;;;4966734;28;20549;-79
2023/08/22 06:31:38;;;;;;;3.40;1.97;;;;;;;;;;4967054;28;20460;-81
2023/08/22 06:34:04;;;;;;;5.23;1.47;;;;;;;;;;4965380;28;20482;-81
2023/08/22 06:36:30;;;;;;;5.10;1.57;;;;;;;;;;4963957;28;20513;-81
2023/08/22 06:38:56;;;;;;;3.47;1.80;;;;;;;;;;4971547;28;20263;-81
2023/08/22 06:41:22;;;;;;;5.07;1.83;;;;;;;;;;4971764;28;20728;-80
2023/08/22 06:43:48;;;;;;;2.40;0.93;;;;;;;;;;4956825;28;20184;-80
2023/08/22 06:46:16;;;;;;;2.97;1.27;;;;;;;;;;4962632;28;20783;-81
2023/08/22 06:48:42;;;;;;;2.60;1.63;;;;;;;;;;4976186;28;20985;-81
2023/08/22 06:51:08;;;;;;;3.60;0.90;;;;;;;;;;4976142;28;20470;-81
2023/08/22 06:53:34;;;;;;;3.27;1.67;;;;;;;;;;4975789;28;20174;-81
2023/08/22 06:56:01;;;;;;;3.53;1.63;;;;;;;;;;4976153;28;20434;-81
2023/08/22 06:58:27;;;;;;;4.07;1.43;;;;;;;;;;4976068;28;20178;-81
2023/08/22 07:00:53;;;;;;;3.23;1.73;;;;;;;;;;4976006;28;20416;-81
2023/08/22 07:03:19;;;;;;;5.10;1.40;;;;;;;;;;4976137;28;20623;-81
2023/08/22 07:05:44;;;;;;;2.60;1.20;;;;;;;;;;4974076;28;20329;-80
2023/08/22 07:08:10;;;;;;;1.73;0.80;;;;;;;;;;4975063;28;20259;-80
2023/08/22 07:10:36;;;;;;;2.03;1.13;;;;;;;;;;4975348;28;20547;-81
2023/08/22 07:13:02;;;;;;;2.13;0.70;;;;;;;;;;4974852;28;20886;-80
2023/08/22 07:15:29;;;;;;;9.90;4.10;;;;;;;;;;4969515;28;20414;-80
2023/08/22 07:17:55;;;;;;;4.60;0.90;;;;;;;;;;4965535;28;20498;-81
2023/08/22 07:20:21;;;;;;;1.87;1.00;;;;;;;;;;4965946;28;20418;-81
2023/08/22 07:22:47;;;;;;;2.33;1.00;;;;;;;;;;4971338;28;20933;-81
2023/08/22 07:25:13;;;;;;;2.70;1.10;;;;;;;;;;4964194;28;20911;-80
2023/08/22 07:27:39;;;;;;;5.33;2.33;;;;;;;;;;4972604;28;20182;-82
2023/08/22 07:30:05;;;;;;;3.17;1.67;;;;;;;;;;4963282;28;20172;-82
2023/08/22 07:32:31;;;;;;;4.70;1.07;;;;;;;;;;4955716;28;20468;-82
2023/08/22 07:34:57;;;;;;;2.47;0.80;;;;;;;;;;4960764;28;20424;-82
2023/08/22 07:37:23;;;;;;;4.10;1.20;;;;;;;;;;4953772;28;20448;-83
2023/08/22 07:39:49;;;;;;;4.53;0.87;;;;;;;;;;4954660;28;20448;-83
2023/08/22 07:42:16;;;;;;;4.20;0.90;;;;;;;;;;4955765;29;20181;-83
2023/08/22 07:44:43;;;;;;;2.40;0.63;;;;;;;;;;4955602;28;20197;-84
2023/08/22 07:47:09;;;;;;;3.13;0.87;;;;;;;;;;4954845;28;20423;-83
2023/08/22 07:49:35;;;;;;;2.60;0.60;;;;;;;;;;4955221;28;20413;-84
2023/08/22 07:52:01;;;;;;;2.67;0.87;;;;;;;;;;4955091;28;20260;-83
2023/08/22 07:54:27;;;;;;;2.80;1.07;;;;;;;;;;4955574;28;20185;-82
2023/08/22 07:56:53;;;;;;;3.00;1.47;;;;;;;;;;4969673;28;20436;-82
2023/08/22 07:59:19;;;;;;;3.60;1.07;;;;;;;;;;4955584;28;20177;-83
2023/08/22 08:01:48;;;;;;;2.73;0.93;;;;;;;;;;4955582;28;20177;-82
2023/08/22 08:04:14;;;;;;;3.53;1.60;;;;;;;;;;4955497;28;20188;-82
2023/08/22 08:06:39;;;;;;;2.93;1.13;;;;;;;;;;4954944;28;20417;-83
2023/08/22 08:09:05;;;;;;;3.93;1.10;;;;;;;;;;4961532;28;20188;-82
2023/08/22 08:11:31;;;;;;;3.20;1.27;;;;;;;;;;4973920;28;20208;-82
2023/08/22 08:13:58;;;;;;;4.17;1.13;;;;;;;;;;4956219;28;20192;-83
2023/08/22 08:16:27;;;;;;;132.63;51.93;;;;;;;;;;4956085;28;20424;-83
2023/08/22 08:18:53;;;;;;;65.63;29.17;;;;;;;;;;4973408;28;20458;-84
2023/08/22 08:21:19;;;;;;;13.93;5.77;;;;;;;;;;4973469;28;20436;-83
2023/08/22 08:23:45;;;;;;;2.50;0.70;;;;;;;;;;4973174;28;20563;-84
2023/08/22 08:26:11;;;;;;;5.67;1.07;;;;;;;;;;4972671;28;20419;-84
2023/08/22 08:28:38;;;;;;;2.27;1.10;;;;;;;;;;4973306;28;20843;-83
2023/08/22 08:31:04;;;;;;;5.20;1.37;;;;;;;;;;4973471;28;20556;-82
2023/08/22 08:33:30;;;;;;;1.90;0.80;;;;;;;;;;4973225;28;20415;-84
2023/08/22 08:35:56;;;;;;;3.47;0.93;;;;;;;;;;4971898;28;20424;-83
2023/08/22 08:38:22;;;;;;;3.90;0.80;;;;;;;;;;4972710;28;20255;-85
2023/08/22 08:40:48;;;;;;;2.90;1.00;;;;;;;;;;4973073;28;20634;-84
2023/08/22 08:43:14;;;;;;;3.67;1.07;;;;;;;;;;4972977;28;20176;-84
2023/08/22 08:45:40;;;;;;;4.03;0.60;;;;;;;;;;4972910;28;20408;-82
2023/08/22 08:48:07;;;;;;;1.43;0.60;;;;;;;;;;4972669;28;20426;-83
2023/08/22 08:50:38;;;;;;;1.13;0.40;;;;;;;;;;4973094;28;20494;-83
2023/08/22 08:53:07;;;;;;;2.43;0.60;;;;;;;;;;4972773;28;20422;-83
2023/08/22 08:55:33;;;;;;;2.67;0.83;;;;;;;;;;4972208;28;20471;-83
2023/08/22 08:57:59;;;;;;;2.73;0.97;;;;;;;;;;4964767;28;20421;-84
2023/08/22 09:00:25;;;;;;;2.70;0.80;;;;;;;;;;4953659;28;20800;-84
2023/08/22 09:02:51;;;;;;;2.33;0.70;;;;;;;;;;4968447;28;20480;-84
2023/08/22 09:05:17;;;;;;;2.90;0.87;;;;;;;;;;4954172;28;20738;-83
2023/08/22 09:07:44;;;;;;;3.83;0.70;;;;;;;;;;4972531;28;20519;-84
2023/08/22 09:10:10;;;;;;;2.83;0.67;;;;;;;;;;4975190;28;20440;-84
2023/08/22 09:12:37;;;;;;;3.50;0.87;;;;;;;;;;4937014;28;1002830;-84
2023/08/22 09:15:07;;;;;;;2.40;0.70;;;;;;;;;;4958221;28;20252;-84
2023/08/22 09:17:33;;;;;;;1.60;0.63;;;;;;;;;;4958331;28;20503;-84
2023/08/22 09:19:58;;;;;;;3.00;0.50;;;;;;;;;;4958212;28;20507;-85
2023/08/22 09:22:30;;;;;;;2.70;0.97;;;;;;;;;;4971715;28;20689;-85
2023/08/22 09:24:56;;;;;;;2.87;0.80;;;;;;;;;;4958154;28;20211;-84
2023/08/22 09:27:26;;;;;;;2.33;0.90;;;;;;;;;;4973221;28;20452;-84
2023/08/22 09:29:52;;;;;;;7.50;1.00;;;;;;;;;;4958420;29;20600;-83
2023/08/22 09:32:20;;;;;;;4.03;0.63;;;;;;;;;;4958384;28;20901;-84
2023/08/22 09:34:56;;;;;;;1.60;0.50;;;;;;;;;;4958267;28;20885;-84
2023/08/22 09:37:35;;;;;;;2.30;0.53;;;;;;;;;;4957030;28;20462;-84
2023/08/22 09:40:03;;;;;;;4.27;1.37;;;;;;;;;;4957836;28;20975;-83
2023/08/22 09:42:30;;;;;;;2.03;0.60;;;;;;;;;;4958273;28;21128;-83
2023/08/22 09:44:56;;;;;;;3.93;1.90;;;;;;;;;;4957954;28;20784;-84
2023/08/22 09:47:30;;;;;;;3.27;0.60;;;;;;;;;;4972960;28;20540;-84
2023/08/22 09:49:56;;;;;;;2.67;0.63;;;;;;;;;;4958006;28;20412;-84
2023/08/22 09:52:24;;;;;;;1.30;0.70;;;;;;;;;;4957633;28;20420;-83
2023/08/22 09:54:50;;;;;;;2.30;1.00;;;;;;;;;;4957920;28;20432;-83
2023/08/22 09:57:16;;;;;;;2.83;0.77;;;;;;;;;;4957773;28;20408;-83
2023/08/22 09:59:43;;;;;;;5.10;0.90;;;;;;;;;;4972705;28;20427;-83
2023/08/22 10:02:11;;;;;;;2.67;0.73;;;;;;;;;;4957685;28;20482;-83
2023/08/22 10:04:37;;;;;;;2.90;0.90;;;;;;;;;;4972497;28;20536;-83
2023/08/22 10:07:03;;;;;;;1.73;0.60;;;;;;;;;;4957267;28;21001;-85
2023/08/22 10:09:28;;;;;;;2.40;1.10;;;;;;;;;;4972450;28;20188;-84
2023/08/22 10:11:55;;;;;;;2.10;0.70;;;;;;;;;;4972254;28;20308;-83
2023/08/22 10:14:26;;;;;;;2.60;0.90;;;;;;;;;;4957511;28;20180;-85
2023/08/22 10:16:54;;;;;;;3.70;0.80;;;;;;;;;;4957367;28;20425;-82
2023/08/22 10:19:20;;;;;;;3.77;0.60;;;;;;;;;;4957414;28;20783;-82
2023/08/22 10:21:47;;;;;;;2.53;0.57;;;;;;;;;;4956607;28;20508;-82
2023/08/22 10:24:39;;;;;;;2.53;1.00;;;;;;;;;;4957377;28;20416;-82
2023/08/22 10:27:09;;;;;;;2.40;0.80;;;;;;;;;;4954616;28;20825;-84
2023/08/22 10:29:37;;;;;;;3.23;1.13;;;;;;;;;;4957283;28;20416;-84
2023/08/22 10:32:03;;;;;;;3.10;0.70;;;;;;;;;;4957229;28;20522;-84
2023/08/22 10:34:35;;;;;;;3.33;0.87;;;;;;;;;;4957231;28;20417;-84
2023/08/22 10:37:04;;;;;;;2.43;0.73;;;;;;;;;;4956766;28;20508;-82
2023/08/22 10:39:40;;;;;;;2.10;1.00;;;;;;;;;;4957122;29;20424;-85
2023/08/22 10:42:06;;;;;;;2.33;0.90;;;;;;;;;;4956976;28;20530;-84
2023/08/22 10:44:32;;;;;;;2.80;0.90;;;;;;;;;;4957006;28;20405;-84
2023/08/22 10:46:59;;;;;;;3.90;0.83;;;;;;;;;;4956975;28;20833;-84
2023/08/22 10:49:28;;;;;;;5.87;1.43;;;;;;;;;;4956962;28;20400;-84
2023/08/22 10:52:07;;;;;;;2.33;1.10;;;;;;;;;;4956486;28;20512;-86
2023/08/22 10:54:34;;;;;;;1.90;0.80;;;;;;;;;;4956920;28;20427;-84
2023/08/22 10:57:21;;;;;;;2.00;0.70;;;;;;;;;;4956775;28;20408;-85
2023/08/22 10:59:54;;;;;;;2.27;0.73;;;;;;;;;;4956649;28;20412;-84
2023/08/22 11:02:20;;;;;;;3.70;1.77;;;;;;;;;;4962980;29;20476;-83
2023/08/22 11:04:46;;;;;;;5.50;1.20;;;;;;;;;;4962463;28;20456;-82
2023/08/22 11:07:12;;;;;;;2.30;0.87;;;;;;;;;;4956288;29;20181;-85
2023/08/22 11:09:39;;;;;;;2.20;1.30;;;;;;;;;;4956578;28;20781;-85
2023/08/22 11:12:16;;;;;;;3.17;0.97;;;;;;;;;;4956386;28;20728;-82
2023/08/22 11:14:49;;;;;;;4.67;1.67;;;;;;;;;;4956399;29;20507;-83
2023/08/22 11:17:15;;;;;;;5.93;1.73;;;;;;;;;;4956475;28;20782;-81
2023/08/22 11:19:42;;;;;;;2.53;1.40;;;;;;;;;;4956371;28;20423;-82
2023/08/22 11:22:08;;;;;;;4.60;1.37;;;;;;;;;;4955884;28;20483;-84
2023/08/22 11:24:34;;;;;;;2.50;1.30;;;;;;;;;;4956245;28;20420;-82
2023/08/22 11:27:03;;;;;;;2.80;1.17;;;;;;;;;;4956160;28;20420;-83
2023/08/22 11:29:29;;;;;;;5.97;1.50;;;;;;;;;;4956170;28;20180;-81
2023/08/22 11:31:55;;;;;;;1.87;1.53;;;;;;;;;;4955369;28;20973;-81
2023/08/22 11:34:22;;;;;;;3.83;1.27;;;;;;;;;;4956215;28;20408;-82
2023/08/22 11:36:47;;;;;;;5.00;1.80;;;;;;;;;;4955756;29;20173;-82
2023/08/22 11:39:14;;;;;;;3.17;1.30;;;;;;;;;;4970914;28;21008;-82
2023/08/22 11:41:40;;;;;;;2.40;1.13;;;;;;;;;;4955871;29;20705;-81
2023/08/22 11:44:15;;;;;;;5.30;2.50;;;;;;;;;;4955893;28;20436;-81
2023/08/22 11:46:41;;;;;;;4.80;1.90;;;;;;;;;;4955888;28;20474;-82
2023/08/22 11:49:08;;;;;;;4.43;1.80;;;;;;;;;;4956951;28;20420;-81
2023/08/22 11:51:33;;;;;;;4.40;1.90;;;;;;;;;;4962907;28;20183;-81
2023/08/22 11:53:59;;;;;;;2.87;1.40;;;;;;;;;;4965225;28;20419;-82
2023/08/22 11:56:26;;;;;;;2.20;1.30;;;;;;;;;;4963993;28;20558;-82
2023/08/22 11:58:52;;;;;;;9.03;2.50;;;;;;;;;;4963602;28;20474;-81
2023/08/22 12:01:22;;;;;;;3.20;1.80;;;;;;;;;;4964936;28;20447;-81
2023/08/22 12:03:48;;;;;;;3.47;1.67;;;;;;;;;;4964156;28;20468;-81
2023/08/22 12:06:15;;;;;;;3.27;1.73;;;;;;;;;;4962831;28;20825;-81
2023/08/22 12:08:42;;;;;;;2.60;1.40;;;;;;;;;;4964866;28;20511;-81
2023/08/22 12:11:07;;;;;;;3.93;1.33;;;;;;;;;;4964067;28;20746;-82
2023/08/22 12:13:33;;;;;;;3.00;1.57;;;;;;;;;;4963008;28;20455;-82
2023/08/22 12:15:59;;;;;;;4.20;1.70;;;;;;;;;;4971466;28;20172;-82
2023/08/22 12:18:37;;;;;;;3.83;2.43;;;;;;;;;;4957139;28;20204;-81
2023/08/22 12:21:03;;;;;;;5.17;1.93;;;;;;;;;;4954623;28;20168;-82
2023/08/22 12:23:29;;;;;;;2.70;1.17;;;;;;;;;;4955091;28;20420;-82
2023/08/22 12:25:55;;;;;;;2.27;1.40;;;;;;;;;;4955202;28;20412;-82
2023/08/22 12:28:24;;;;;;;2.83;1.40;;;;;;;;;;4970096;28;20657;-82
2023/08/22 12:30:49;;;;;;;2.53;0.77;;;;;;;;;;4955200;28;20243;-81
2023/08/22 12:33:15;;;;;;;3.07;1.10;;;;;;;;;;4955214;28;21013;-82
2023/08/22 12:35:42;;;;;;;6.23;1.70;;;;;;;;;;4955138;28;20660;-81
2023/08/22 12:38:08;;;;;;;3.77;1.50;;;;;;;;;;4954818;28;20181;-82
2023/08/22 12:40:34;;;;;;;3.63;1.50;;;;;;;;;;4954966;28;20412;-81
2023/08/22 12:43:00;;;;;;;3.07;1.70;;;;;;;;;;4954771;28;20263;-81
2023/08/22 12:45:26;;;;;;;3.43;1.37;;;;;;;;;;4954906;28;20176;-81
2023/08/22 12:47:52;;;;;;;3.80;1.43;;;;;;;;;;4969748;28;20591;-82
2023/08/22 12:50:18;;;;;;;2.63;1.10;;;;;;;;;;4954969;28;20191;-82
2023/08/22 12:52:44;;;;;;;2.33;0.80;;;;;;;;;;4954608;28;20207;-82
2023/08/22 12:55:10;;;;;;;2.43;1.20;;;;;;;;;;4954905;28;20251;-81
2023/08/22 12:57:37;;;;;;;2.43;1.07;;;;;;;;;;4954766;28;20184;-82
2023/08/22 13:00:03;;;;;;;3.63;1.50;;;;;;;;;;4969756;28;20424;-82
2023/08/22 13:02:29;;;;;;;3.87;1.13;;;;;;;;;;4954792;28;20573;-81
2023/08/22 13:04:56;;;;;;;2.43;1.30;;;;;;;;;;4954833;28;20488;-82
2023/08/22 13:07:22;;;;;;;2.80;1.40;;;;;;;;;;4954544;28;20223;-82
2023/08/22 13:09:48;;;;;;;1.73;1.50;;;;;;;;;;4954759;28;20408;-82
2023/08/22 13:12:14;;;;;;;3.73;1.33;;;;;;;;;;4954614;28;20261;-82
2023/08/22 13:14:40;;;;;;;3.27;0.90;;;;;;;;;;4954706;28;20448;-82
2023/08/22 13:17:06;;;;;;;3.37;0.73;;;;;;;;;;4954724;28;20179;-82
2023/08/22 13:19:32;;;;;;;3.30;1.77;;;;;;;;;;4954662;28;20175;-82
2023/08/22 13:21:57;;;;;;;2.03;1.23;;;;;;;;;;4954276;28;20212;-82
2023/08/22 13:24:23;;;;;;;5.47;1.53;;;;;;;;;;4954675;29;20537;-81
2023/08/22 13:26:49;;;;;;;3.50;1.30;;;;;;;;;;4954552;28;20177;-82
2023/08/22 13:29:15;;;;;;;5.43;1.60;;;;;;;;;;4954558;29;20259;-82
2023/08/22 13:31:41;;;;;;;3.03;1.30;;;;;;;;;;4969495;28;20180;-82
2023/08/22 13:34:07;;;;;;;1.60;0.90;;;;;;;;;;4954559;28;20165;-82
2023/08/22 13:36:33;;;;;;;3.37;1.00;;;;;;;;;;4954149;28;20549;-82
2023/08/22 13:38:59;;;;;;;1.93;1.00;;;;;;;;;;4954548;28;20180;-82
2023/08/22 13:41:25;;;;;;;4.50;0.90;;;;;;;;;;4954437;28;20468;-82
2023/08/22 13:43:51;;;;;;;2.20;1.30;;;;;;;;;;4969258;28;20185;-82
2023/08/22 13:46:17;;;;;;;1.73;0.53;;;;;;;;;;4954462;28;20460;-82
2023/08/22 13:48:46;;;;;;;3.03;0.40;;;;;;;;;;4954389;28;20269;-80
2023/08/22 13:51:12;;;;;;;2.07;0.43;;;;;;;;;;4954038;28;20432;-82
2023/08/22 13:53:38;;;;;;;1.57;0.47;;;;;;;;;;4954353;28;20405;-81
2023/08/22 13:56:03;;;;;;;2.27;0.40;;;;;;;;;;4956236;28;20173;-81
2023/08/22 13:58:29;;;;;;;1.97;0.57;;;;;;;;;;4957872;28;20177;-81
2023/08/22 14:00:56;;;;;;;2.90;0.43;;;;;;;;;;4957750;28;20439;-81
2023/08/22 14:03:22;;;;;;;1.87;0.40;;;;;;;;;;4957823;28;20208;-81
2023/08/22 14:05:47;;;;;;;3.20;1.13;;;;;;;;;;4957361;28;20503;-81
2023/08/22 14:08:16;;;;;;;6.73;0.60;;;;;;;;;;4957620;28;20260;-81
2023/08/22 14:10:42;;;;;;;2.80;0.73;;;;;;;;;;4957616;28;20231;-81
2023/08/22 14:13:08;;;;;;;1.50;0.40;;;;;;;;;;4957374;28;20468;-81
2023/08/22 14:15:34;;;;;;;1.20;0.50;;;;;;;;;;4957494;28;20184;-81
2023/08/22 14:18:00;;;;;;;3.13;0.47;;;;;;;;;;4957487;28;20566;-81
2023/08/22 14:20:26;;;;;;;3.13;0.87;;;;;;;;;;4957525;28;20747;-81
2023/08/22 14:22:52;;;;;;;1.00;0.33;;;;;;;;;;4956952;28;20472;-81
2023/08/22 14:25:17;;;;;;;2.03;0.63;;;;;;;;;;4957356;28;20653;-81
2023/08/22 14:27:44;;;;;;;1.70;0.50;;;;;;;;;;4957345;28;20189;-81
2023/08/22 14:30:12;;;;;;;1.27;0.60;;;;;;;;;;4957273;29;20173;-81
2023/08/22 14:32:38;;;;;;;1.67;0.30;;;;;;;;;;4957325;28;20416;-80
2023/08/22 14:35:04;;;;;;;2.03;0.47;;;;;;;;;;4957163;28;20943;-81
2023/08/22 14:37:30;;;;;;;1.47;0.40;;;;;;;;;;4956794;28;20181;-81
2023/08/22 14:39:56;;;;;;;4.30;0.40;;;;;;;;;;4957171;28;20408;-81